Terminal Aerodrome Forecast
Issued by NWS Sterling, VA

Current Version | Previous Version | Graphics & Text | Print | Product List | Glossary On
Versions: 1 2 3 4 5 6 7 8 9 10 11 12 13 14 15 16 17 18 19 20 21 22 23 24 25 26 27 28 29 30 31
000
FTUS41 KLWX 091700
TAFIAD
TAF
KIAD 091726Z 0918/1024 21009KT P6SM VCTS BKN050CB BKN130
     FM100100 VRB03KT P6SM FEW050 SCT130
     FM100900 VRB03KT 5SM BR FEW050 BKN130
     FM101300 34005KT P6SM SCT050 BKN130
     FM101800 07004KT P6SM BKN050 BKN130
     FM102100 11005KT P6SM BKN050 BKN130=

USA.gov is the U.S. government's official web portal to all federal, state and local government web resources and services.